createdAt,value
2019-04-27T00:03:02.385Z,12.83
2019-04-27T00:08:09.213Z,12.66
2019-04-27T00:13:15.187Z,12.31
2019-04-27T00:18:28.622Z,12.74
2019-04-27T00:23:33.984Z,12.48
2019-04-27T00:28:38.626Z,12.33
2019-04-27T00:33:43.453Z,12.41
2019-04-27T00:39:03.522Z,12.21
2019-04-27T00:44:09.678Z,12.03
2019-04-27T00:49:14.094Z,12.30
2019-04-27T00:54:18.435Z,12.19
2019-04-27T00:59:24.437Z,12.14
2019-04-27T01:04:30.609Z,12.27
2019-04-27T01:09:35.603Z,12.03
2019-04-27T01:14:40.018Z,12.47
2019-04-27T01:19:44.367Z,12.27
2019-04-27T01:24:49.251Z,12.37
2019-04-27T01:29:55.381Z,12.24
2019-04-27T01:34:59.791Z,12.39
2019-04-27T01:40:05.714Z,12.37
2019-04-27T01:45:10.229Z,12.09
2019-04-27T01:50:14.739Z,12.29
2019-04-27T01:55:19.296Z,12.30
2019-04-27T02:00:49.386Z,12.28
2019-04-27T02:05:57.023Z,12.36
2019-04-27T02:11:01.364Z,12.34
2019-04-27T02:16:05.731Z,12.50
2019-04-27T02:21:10.105Z,12.02
2019-04-27T02:26:14.452Z,12.31
2019-04-27T02:31:33.151Z,12.13
2019-04-27T02:36:39.187Z,11.98
2019-04-27T02:41:43.621Z,12.32
2019-04-27T02:46:50.214Z,12.26
2019-04-27T02:52:09.473Z,12.54
2019-04-27T02:57:13.716Z,11.94
2019-04-27T03:02:19.892Z,11.90
2019-04-27T03:07:24.227Z,12.25
2019-04-27T03:12:30.207Z,12.19
2019-04-27T03:17:45.376Z,11.95
2019-04-27T03:22:51.382Z,11.72
2019-04-27T03:27:57.463Z,12.24
2019-04-27T03:33:03.404Z,11.95
2019-04-27T03:38:10.427Z,12.14
2019-04-27T03:43:15.858Z,11.80
2019-04-27T03:48:20.594Z,11.82
2019-04-27T03:53:43.205Z,11.93
2019-04-27T03:58:49.536Z,11.95
2019-04-27T04:03:53.985Z,12.28
2019-04-27T04:09:00.163Z,12.38
2019-04-27T04:14:17.095Z,12.01
2019-04-27T04:19:21.480Z,12.28
2019-04-27T04:24:28.537Z,12.19
2019-04-27T04:29:31.969Z,12.33
2019-04-27T04:34:36.397Z,11.94
2019-04-27T04:39:40.785Z,12.32
2019-04-27T04:44:50.324Z,12.08
2019-04-27T04:50:08.512Z,12.34
2019-04-27T04:55:02.686Z,12.20
2019-04-27T05:00:09.853Z,12.19
2019-04-27T05:05:14.333Z,12.09
2019-04-27T05:10:18.936Z,12.03
2019-04-27T05:15:23.463Z,12.18
2019-04-27T05:20:32.139Z,12.23
2019-04-27T05:25:39.047Z,12.44
2019-04-27T05:30:43.611Z,11.92
2019-04-27T05:35:49.247Z,12.25
2019-04-27T05:40:53.712Z,11.97
2019-04-27T05:46:35.734Z,11.89
2019-04-27T05:51:40.039Z,12.20
2019-04-27T05:56:43.628Z,12.21
2019-04-27T06:01:49.195Z,12.65
2019-04-27T06:06:53.829Z,12.46
2019-04-27T06:11:59.106Z,12.71
2019-04-27T06:17:03.613Z,12.65
2019-04-27T06:22:09.671Z,12.87
2019-04-27T06:27:14.101Z,12.77
2019-04-27T06:32:19.189Z,13.54
2019-04-27T06:37:23.599Z,13.87
2019-04-27T06:42:29.657Z,13.76
2019-04-27T06:47:34.048Z,13.05
2019-04-27T06:52:39.008Z,12.92
2019-04-27T06:57:44.627Z,13.00
2019-04-27T07:02:55.464Z,13.02
2019-04-27T07:07:59.848Z,13.32
2019-04-27T07:13:04.254Z,13.44
2019-04-27T07:18:09.793Z,13.72
2019-04-27T07:23:14.269Z,13.77
2019-04-27T07:28:19.637Z,13.85
2019-04-27T07:33:24.128Z,14.03
2019-04-27T07:38:29.359Z,13.91
2019-04-27T07:43:39.648Z,13.75
2019-04-27T07:48:44.153Z,14.61
2019-04-27T07:53:48.937Z,14.53
2019-04-27T07:58:53.403Z,14.61
2019-04-27T08:03:59.025Z,14.53
2019-04-27T08:09:03.767Z,15.14
2019-04-27T08:14:09.622Z,15.42
2019-04-27T08:19:13.996Z,15.19
2019-04-27T08:24:19.394Z,15.31
2019-04-27T08:29:32.954Z,15.35
2019-04-27T08:34:39.717Z,15.86
2019-04-27T08:39:45.186Z,15.78
2019-04-27T08:44:49.848Z,15.50
2019-04-27T08:49:54.262Z,16.29
2019-04-27T08:54:59.441Z,15.85
2019-04-27T09:00:09.412Z,15.70
2019-04-27T09:05:17.428Z,15.87
2019-04-27T09:10:23.749Z,16.09
2019-04-27T09:15:32.787Z,16.25
2019-04-27T09:20:39.099Z,15.91
2019-04-27T09:25:44.311Z,16.08
2019-04-27T09:30:49.779Z,16.91
2019-04-27T09:35:54.274Z,15.95
2019-04-27T09:40:58.664Z,15.52
2019-04-27T09:46:03.451Z,16.19
2019-04-27T09:51:08.237Z,15.80
2019-04-27T09:56:12.664Z,16.18
2019-04-27T10:01:18.136Z,16.66
2019-04-27T10:06:22.783Z,15.95
2019-04-27T10:11:28.235Z,16.27
2019-04-27T10:16:32.618Z,16.55
2019-04-27T10:21:37.106Z,16.58
2019-04-27T10:26:43.797Z,16.38
2019-04-27T10:31:48.275Z,16.51
2019-04-27T10:36:52.763Z,16.33
2019-04-27T10:41:57.137Z,16.64
2019-04-27T10:47:01.489Z,17.07
2019-04-27T10:52:06.054Z,17.00
2019-04-27T10:57:10.497Z,17.17
2019-04-27T11:02:14.891Z,17.40
2019-04-27T11:07:20.940Z,17.43
2019-04-27T11:12:25.311Z,17.26
2019-04-27T11:17:29.751Z,17.97
2019-04-27T11:22:34.092Z,17.95
2019-04-27T11:27:38.606Z,17.79
2019-04-27T11:32:43.067Z,17.01
2019-04-27T11:37:47.671Z,16.30
2019-04-27T11:42:52.620Z,16.99
2019-04-27T11:47:58.228Z,16.79
2019-04-27T11:53:02.602Z,16.78
2019-04-27T11:58:06.979Z,17.01
2019-04-27T12:03:11.443Z,17.55
2019-04-27T12:08:16.278Z,16.97
2019-04-27T12:13:23.697Z,17.39
2019-04-27T12:18:28.206Z,17.38
2019-04-27T12:23:35.560Z,17.32
2019-04-27T12:28:40.223Z,17.30
2019-04-27T12:33:46.039Z,16.92
2019-04-27T12:38:50.464Z,16.77
2019-04-27T12:43:58.007Z,17.18
2019-04-27T12:49:02.508Z,17.18
2019-04-27T12:54:09.744Z,17.52
2019-04-27T12:59:31.894Z,17.10
2019-04-27T13:04:36.748Z,17.06
2019-04-27T13:09:42.397Z,17.31
2019-04-27T13:14:46.753Z,17.41
2019-04-27T13:19:51.262Z,17.69
2019-04-27T13:24:56.636Z,17.48
2019-04-27T13:30:01.136Z,17.75
2019-04-27T13:35:09.248Z,17.70
2019-04-27T13:40:17.028Z,17.66
2019-04-27T13:45:41.979Z,17.33
2019-04-27T13:51:03.284Z,17.37
2019-04-27T13:56:17.313Z,17.77
2019-04-27T14:01:22.127Z,17.57
2019-04-27T14:06:26.549Z,17.74
2019-04-27T14:11:31.012Z,17.84
2019-04-27T14:16:35.541Z,17.72
2019-04-27T14:21:39.884Z,17.77
2019-04-27T14:26:44.556Z,17.95
2019-04-27T14:31:49.747Z,17.74
2019-04-27T14:36:54.322Z,17.70
2019-04-27T14:41:58.875Z,17.42
2019-04-27T14:47:03.313Z,17.12
2019-04-27T14:52:09.495Z,17.25
2019-04-27T14:57:15.296Z,17.07
2019-04-27T15:02:19.632Z,16.81
2019-04-27T15:07:25.122Z,17.03
2019-04-27T15:12:30.618Z,17.13
2019-04-27T15:17:36.173Z,17.20
2019-04-27T15:22:40.956Z,17.24
2019-04-27T15:27:47.396Z,17.43
2019-04-27T15:32:53.461Z,17.53
2019-04-27T15:37:59.426Z,17.25
2019-04-27T15:43:05.600Z,17.23
2019-04-27T15:48:10.169Z,17.22
2019-04-27T15:53:14.618Z,17.29
2019-04-27T15:58:24.959Z,17.49
2019-04-27T16:03:27.216Z,17.15
2019-04-27T16:08:32.270Z,17.39
2019-04-27T16:13:38.267Z,17.11
2019-04-27T16:18:43.004Z,16.88
2019-04-27T16:23:48.052Z,16.86
2019-04-27T16:28:53.377Z,16.74
2019-04-27T16:34:02.497Z,16.76
2019-04-27T16:39:08.149Z,16.71
2019-04-27T16:44:14.875Z,16.55
2019-04-27T16:49:19.246Z,16.59
2019-04-27T16:54:23.583Z,16.47
2019-04-27T16:59:42.738Z,16.42
2019-04-27T17:04:33.964Z,16.42
2019-04-27T17:09:42.183Z,16.55
2019-04-27T17:14:50.687Z,16.46
2019-04-27T17:19:58.146Z,16.18
2019-04-27T17:25:03.141Z,16.14
2019-04-27T17:30:10.638Z,16.05
2019-04-27T17:35:15.215Z,16.15
2019-04-27T17:40:19.597Z,16.09
2019-04-27T17:45:24.114Z,16.05
2019-04-27T17:50:29.873Z,16.08
2019-04-27T17:55:37.639Z,15.94
2019-04-27T18:00:44.528Z,16.07
2019-04-27T18:05:51.734Z,15.79
2019-04-27T18:11:00.567Z,15.97
2019-04-27T18:16:00.477Z,15.89
2019-04-27T18:21:05.281Z,15.53
2019-04-27T18:26:17.435Z,14.75
2019-04-27T18:31:20.082Z,14.48
2019-04-27T18:36:24.425Z,14.48
2019-04-27T18:41:29.205Z,14.52
2019-04-27T18:46:33.712Z,14.21
2019-04-27T18:51:39.693Z,14.13
2019-04-27T18:56:44.078Z,13.82
2019-04-27T19:01:48.994Z,14.13
2019-04-27T19:06:53.582Z,13.87
2019-04-27T19:11:57.945Z,13.49
2019-04-27T19:17:02.320Z,13.72
2019-04-27T19:22:08.797Z,13.72
2019-04-27T19:27:20.568Z,13.76
2019-04-27T19:32:23.632Z,13.63
2019-04-27T19:37:28.634Z,13.34
2019-04-27T19:42:33.184Z,13.36
2019-04-27T19:47:38.362Z,13.19
2019-04-27T19:52:42.825Z,13.04
2019-04-27T19:57:47.227Z,12.64
2019-04-27T20:02:51.684Z,12.77
2019-04-27T20:07:56.055Z,12.93
2019-04-27T20:13:00.874Z,13.17
2019-04-27T20:18:05.229Z,12.55
2019-04-27T20:23:10.663Z,12.93
2019-04-27T20:28:15.033Z,12.88
2019-04-27T20:33:21.074Z,13.19
2019-04-27T20:38:25.493Z,13.36
2019-04-27T20:43:31.454Z,13.08
2019-04-27T20:48:36.483Z,13.04
2019-04-27T20:53:44.974Z,13.22
2019-04-27T20:58:51.143Z,13.14
2019-04-27T21:03:57.147Z,12.83
2019-04-27T21:09:03.101Z,12.84
2019-04-27T21:14:11.081Z,12.86
2019-04-27T21:19:15.338Z,13.09
2019-04-27T21:24:20.709Z,12.90
2019-04-27T21:29:26.070Z,12.68
2019-04-27T21:34:31.028Z,13.05
2019-04-27T21:39:36.542Z,13.10
2019-04-27T21:44:42.029Z,13.06
2019-04-27T21:49:46.645Z,13.11
2019-04-27T21:54:52.706Z,13.36
2019-04-27T21:59:57.146Z,13.04
2019-04-27T22:05:01.582Z,13.04
2019-04-27T22:10:07.318Z,12.90
2019-04-27T22:15:12.016Z,12.58
2019-04-27T22:20:16.692Z,12.78
2019-04-27T22:25:22.988Z,12.84
2019-04-27T22:30:27.335Z,12.68
2019-04-27T22:35:31.730Z,12.22
2019-04-27T22:40:54.262Z,12.62
2019-04-27T22:46:01.217Z,12.79
2019-04-27T22:51:05.750Z,12.60
2019-04-27T22:56:17.541Z,12.06
2019-04-27T23:01:32.757Z,12.23
2019-04-27T23:06:37.096Z,11.90
2019-04-27T23:11:41.603Z,12.05
2019-04-27T23:16:51.484Z,11.74
2019-04-27T23:21:55.857Z,11.76
2019-04-27T23:27:03.405Z,11.75
2019-04-27T23:32:11.656Z,11.80
2019-04-27T23:37:16.117Z,11.46
2019-04-27T23:42:21.716Z,11.33
2019-04-27T23:47:26.236Z,11.47
2019-04-27T23:52:50.670Z,11.44
2019-04-27T23:57:55.861Z,11.29
